Weather at Port Pirie Airport

Public forecast

Using degrees Celsius for public forecast. Weather courtesy of forecast.io.

Closest aviation weather report (METAR) to Port Pirie Airport

Closest report is Whyalla Airport, 26.5 nm (49.0 km) WNW. Retrieved 2020/12/02 05:00 UTC (32 minutes ago):

YWHA 020500Z AUTO 17015KT 9999 // NCD 21/08 Q1022

Closest aviation forecast (TAF) to Port Pirie Airport

Forecast is more than 12 hours old.

Closest forecast is Whyalla Airport, 26.5 nm (49.0 km) WNW. Retrieved 2018/11/15 18:03 UTC (2 years ago):

TAF YWHA 151701Z 1518/1608 VRB05KT CAVOK FM152300 18012KT CAVOK FM160200 18018KT CAVOK